createdAt,value
2019-02-07T00:00:21.967Z,101051.33
2019-02-07T00:02:50.265Z,101045.67
2019-02-07T00:05:18.570Z,101030.62
2019-02-07T00:07:47.081Z,101027.37
2019-02-07T00:10:20.570Z,101027.37
2019-02-07T00:12:48.892Z,101022.54
2019-02-07T00:15:17.350Z,101016.89
2019-02-07T00:17:45.632Z,101015.00
2019-02-07T00:20:16.559Z,101009.62
2019-02-07T00:22:44.854Z,101011.23
2019-02-07T00:25:13.280Z,101005.34
2019-02-07T00:27:41.560Z,101000.47
2019-02-07T00:30:20.675Z,100998.89
2019-02-07T00:32:48.982Z,100994.30
2019-02-07T00:35:17.940Z,100988.37
2019-02-07T00:37:46.345Z,100978.70
2019-02-07T00:40:16.572Z,100971.15
2019-02-07T00:42:45.179Z,100967.94
2019-02-07T00:45:19.426Z,100971.70
2019-02-07T00:47:47.992Z,100962.80
2019-02-07T00:50:17.543Z,100961.45
2019-02-07T00:52:45.855Z,100949.62
2019-02-07T00:55:18.464Z,100949.62
2019-02-07T00:57:46.755Z,100943.44
2019-02-07T01:00:23.831Z,100932.96
2019-02-07T01:02:52.171Z,100925.40
2019-02-07T01:05:22.245Z,100917.05
2019-02-07T01:07:50.884Z,100910.59
2019-02-07T01:10:25.252Z,100900.09
2019-02-07T01:12:54.004Z,100901.16
2019-02-07T01:15:22.423Z,100897.67
2019-02-07T01:17:50.679Z,100888.78
2019-02-07T01:20:18.972Z,100878.28
2019-02-07T01:22:47.348Z,100878.28
2019-02-07T01:25:18.385Z,100868.31
2019-02-07T01:27:46.806Z,100864.02
2019-02-07T01:30:21.122Z,100852.15
2019-02-07T01:32:49.371Z,100856.17
2019-02-07T01:35:18.454Z,100837.62
2019-02-07T01:37:46.858Z,100836.27
2019-02-07T01:40:19.492Z,100834.36
2019-02-07T01:42:47.824Z,100822.51
2019-02-07T01:45:23.558Z,100821.16
2019-02-07T01:47:52.001Z,100813.34
2019-02-07T01:50:22.957Z,100809.30
2019-02-07T01:52:51.619Z,100801.23
2019-02-07T01:55:19.884Z,100795.28
2019-02-07T01:57:48.275Z,100784.52
2019-02-07T02:00:18.083Z,100780.48
2019-02-07T02:02:46.446Z,100783.73
2019-02-07T02:05:16.145Z,100778.85
2019-02-07T02:07:44.876Z,100773.22
2019-02-07T02:10:16.017Z,100773.72
2019-02-07T02:12:44.491Z,100759.99
2019-02-07T02:15:23.709Z,100754.37
2019-02-07T02:17:43.762Z,100753.81
2019-02-07T02:20:14.527Z,100743.60
2019-02-07T02:22:43.299Z,100740.36
2019-02-07T02:25:13.365Z,100739.82
2019-02-07T02:27:41.687Z,100731.72
2019-02-07T02:30:16.269Z,100724.47
2019-02-07T02:32:44.609Z,100721.52
2019-02-07T02:35:12.939Z,100704.56
2019-02-07T02:37:41.505Z,100710.74
2019-02-07T02:40:11.420Z,100703.46
2019-02-07T02:42:39.973Z,100700.48
2019-02-07T02:45:14.267Z,100691.33
2019-02-07T02:47:42.590Z,100685.92
2019-02-07T02:50:13.900Z,100678.69
2019-02-07T02:52:42.236Z,100670.84
2019-02-07T02:55:12.208Z,100666.28
2019-02-07T02:57:40.509Z,100667.08
2019-02-07T03:00:16.122Z,100666.55
2019-02-07T03:02:49.136Z,100660.08
2019-02-07T03:05:22.149Z,100650.16
2019-02-07T03:07:52.110Z,100640.17
2019-02-07T03:10:24.752Z,100630.75
2019-02-07T03:12:54.809Z,100627.23
2019-02-07T03:15:49.225Z,100618.88
2019-02-07T03:18:15.287Z,100608.41
2019-02-07T03:20:57.252Z,100605.92
2019-02-07T03:23:43.045Z,100603.49
2019-02-07T03:26:27.170Z,100597.00
2019-02-07T03:29:03.872Z,100591.09
2019-02-07T03:31:38.474Z,100583.02
2019-02-07T03:34:11.194Z,100573.59
2019-02-07T03:36:41.174Z,100568.73
2019-02-07T03:39:11.116Z,100575.44
2019-02-07T03:41:49.978Z,100569.50
2019-02-07T03:44:19.918Z,100562.53
2019-02-07T03:46:52.807Z,100554.16
2019-02-07T03:49:37.822Z,100548.52
2019-02-07T03:52:07.719Z,100547.64
2019-02-07T03:54:46.359Z,100538.77
2019-02-07T03:57:21.898Z,100539.83
2019-02-07T03:59:58.003Z,100531.75
2019-02-07T04:02:30.524Z,100527.21
2019-02-07T04:05:09.169Z,100525.59
2019-02-07T04:07:54.126Z,100524.48
2019-02-07T04:10:34.429Z,100512.60
2019-02-07T04:13:19.462Z,100506.16
2019-02-07T04:15:55.282Z,100504.03
2019-02-07T04:18:34.745Z,100491.62
2019-02-07T04:21:21.579Z,100487.31
2019-02-07T04:23:56.676Z,100481.08
2019-02-07T04:26:29.631Z,100471.72
2019-02-07T04:29:03.048Z,100467.67
2019-02-07T04:31:35.623Z,100468.20
2019-02-07T04:34:05.594Z,100459.33
2019-02-07T04:36:41.555Z,100451.02
2019-02-07T04:39:11.474Z,100450.96
2019-02-07T04:41:41.415Z,100444.23
2019-02-07T04:44:20.185Z,100437.20
2019-02-07T04:46:53.035Z,100426.73
2019-02-07T04:49:31.982Z,100428.34
2019-02-07T04:52:18.307Z,100417.27
2019-02-07T04:54:51.426Z,100405.41
2019-02-07T04:57:21.523Z,100411.89
2019-02-07T04:59:57.831Z,100404.10
2019-02-07T05:02:27.839Z,100397.59
2019-02-07T05:05:07.564Z,100390.61
2019-02-07T05:07:52.856Z,100393.82
2019-02-07T05:10:22.895Z,100386.86
2019-02-07T05:12:58.648Z,100384.73
2019-02-07T05:15:28.665Z,100373.14
2019-02-07T05:18:15.075Z,100375.83
2019-02-07T05:20:48.095Z,100365.65
2019-02-07T05:23:18.199Z,100362.14
2019-02-07T05:25:53.908Z,100356.72
2019-02-07T05:28:26.382Z,100346.17
2019-02-07T05:30:59.047Z,100345.95
2019-02-07T05:33:47.036Z,100333.87
2019-02-07T05:36:32.935Z,100328.70
2019-02-07T05:39:08.775Z,100320.07
2019-02-07T05:41:38.858Z,100318.20
2019-02-07T05:44:11.584Z,100311.50
2019-02-07T05:46:50.709Z,100304.92
2019-02-07T05:49:28.831Z,100300.39
2019-02-07T05:52:04.747Z,100301.14
2019-02-07T05:54:37.726Z,100296.80
2019-02-07T05:57:07.704Z,100293.37
2019-02-07T05:59:43.853Z,100287.90
2019-02-07T06:02:16.378Z,100281.13
2019-02-07T06:04:49.101Z,100277.13
2019-02-07T06:07:24.971Z,100267.41
2019-02-07T06:10:11.248Z,100266.58
2019-02-07T06:12:57.538Z,100273.02
2019-02-07T06:15:46.522Z,100266.77
2019-02-07T06:18:28.510Z,100258.94
2019-02-07T06:21:01.471Z,100262.64
2019-02-07T06:23:43.516Z,100264.55
2019-02-07T06:26:29.707Z,100261.25
2019-02-07T06:29:08.729Z,100257.52
2019-02-07T06:31:50.927Z,100258.30
2019-02-07T06:34:31.161Z,100251.83
2019-02-07T06:37:07.204Z,100245.35
2019-02-07T06:39:37.289Z,100253.65
2019-02-07T06:42:07.353Z,100245.27
2019-02-07T06:44:37.382Z,100250.14
2019-02-07T06:47:16.237Z,100236.63
2019-02-07T06:49:46.402Z,100241.97
2019-02-07T06:52:32.458Z,100234.45
2019-02-07T06:55:04.834Z,100238.72
2019-02-07T06:57:37.831Z,100229.24
2019-02-07T07:00:11.128Z,100227.80
2019-02-07T07:02:50.597Z,100227.77
2019-02-07T07:05:38.621Z,100221.84
2019-02-07T07:08:11.224Z,100219.07
2019-02-07T07:10:45.653Z,100219.84
2019-02-07T07:13:18.201Z,100212.29
2019-02-07T07:15:53.982Z,100217.28
2019-02-07T07:18:23.954Z,100211.58
2019-02-07T07:21:10.076Z,100217.45
2019-02-07T07:23:52.196Z,100216.56
2019-02-07T07:26:28.199Z,100211.70
2019-02-07T07:29:00.314Z,100207.41
2019-02-07T07:31:48.405Z,100203.09
2019-02-07T07:34:18.334Z,100199.32
2019-02-07T07:36:48.515Z,100195.28
2019-02-07T07:39:27.257Z,100202.78
2019-02-07T07:42:09.533Z,100206.27
2019-02-07T07:44:45.415Z,100195.18
2019-02-07T07:47:36.051Z,100182.21
2019-02-07T07:50:12.511Z,100186.78
2019-02-07T07:52:57.427Z,100181.07
2019-02-07T07:55:48.520Z,100164.08
2019-02-07T07:58:21.462Z,100169.42
2019-02-07T08:00:57.549Z,100171.86
2019-02-07T08:03:31.017Z,100175.68
2019-02-07T08:06:07.083Z,100170.52
2019-02-07T08:08:54.183Z,100170.72
2019-02-07T08:11:36.103Z,100168.28
2019-02-07T08:14:10.792Z,100172.58
2019-02-07T08:16:59.342Z,100159.63
2019-02-07T08:19:38.170Z,100165.02
2019-02-07T08:22:10.852Z,100166.31
2019-02-07T08:24:46.545Z,100170.41
2019-02-07T08:27:16.625Z,100174.71
2019-02-07T08:29:46.551Z,100178.45
2019-02-07T08:32:16.850Z,100155.28
2019-02-07T08:34:49.614Z,100171.09
2019-02-07T08:37:31.239Z,100186.48
2019-02-07T08:40:10.358Z,100195.31
2019-02-07T08:42:49.351Z,100189.75
2019-02-07T08:45:21.912Z,100173.00
2019-02-07T08:47:58.590Z,100197.06
2019-02-07T08:50:39.978Z,100196.66
2019-02-07T08:53:22.150Z,100193.09
2019-02-07T08:55:52.059Z,100195.63
2019-02-07T08:58:38.246Z,100186.80
2019-02-07T09:01:16.921Z,100205.18
2019-02-07T09:03:50.543Z,100203.40
2019-02-07T09:06:26.763Z,100207.14
2019-02-07T09:08:52.233Z,100200.20
2019-02-07T09:11:39.697Z,100198.84
2019-02-07T09:14:12.393Z,100200.95
2019-02-07T09:16:45.249Z,100197.03
2019-02-07T09:19:31.517Z,100200.55
2019-02-07T09:22:16.509Z,100197.03
2019-02-07T09:24:55.156Z,100203.19
2019-02-07T09:27:25.149Z,100204.18
2019-02-07T09:30:11.645Z,100205.75
2019-02-07T09:32:57.531Z,100209.85
2019-02-07T09:35:39.854Z,100220.31
2019-02-07T09:38:09.860Z,100211.35
2019-02-07T09:40:39.835Z,100216.53
2019-02-07T09:43:25.592Z,100203.38
2019-02-07T09:46:11.517Z,100211.45
2019-02-07T09:48:58.192Z,100224.89
2019-02-07T09:51:37.024Z,100230.17
2019-02-07T09:54:07.176Z,100223.62
2019-02-07T09:56:37.157Z,100224.77
2019-02-07T09:59:18.768Z,100219.74
2019-02-07T10:01:48.921Z,100224.52
2019-02-07T10:04:21.714Z,100232.37
2019-02-07T10:07:06.665Z,100227.41
2019-02-07T10:09:52.637Z,100230.55
2019-02-07T10:12:34.684Z,100230.34
2019-02-07T10:15:10.592Z,100233.11
2019-02-07T10:17:40.554Z,100248.62
2019-02-07T10:20:27.510Z,100237.09
2019-02-07T10:22:57.514Z,100237.83
2019-02-07T10:25:27.560Z,100226.69
2019-02-07T10:28:09.807Z,100247.05
2019-02-07T10:30:48.657Z,100238.05
2019-02-07T10:33:28.330Z,100236.91
2019-02-07T10:36:01.145Z,100248.53
2019-02-07T10:38:37.178Z,100244.28
2019-02-07T10:41:13.576Z,100251.23
2019-02-07T10:43:46.539Z,100244.80
2019-02-07T10:46:25.402Z,100255.48
2019-02-07T10:48:58.269Z,100249.88
2019-02-07T10:51:30.731Z,100248.15
2019-02-07T10:54:15.670Z,100240.25
2019-02-07T10:56:45.606Z,100248.11
2019-02-07T10:59:18.081Z,100242.51
2019-02-07T11:01:51.017Z,100242.45
2019-02-07T11:04:26.739Z,100244.31
2019-02-07T11:06:56.664Z,100244.66
2019-02-07T11:09:43.044Z,100225.32
2019-02-07T11:12:18.702Z,100237.79
2019-02-07T11:15:04.915Z,100233.67
2019-02-07T11:17:41.346Z,100225.51
2019-02-07T11:20:24.218Z,100231.64
2019-02-07T11:22:54.216Z,100229.12
2019-02-07T11:25:27.226Z,100232.27
2019-02-07T11:28:10.895Z,100219.19
2019-02-07T11:30:43.741Z,100228.45
2019-02-07T11:33:26.132Z,100223.73
2019-02-07T11:35:56.053Z,100223.98
2019-02-07T11:38:34.989Z,100214.03
2019-02-07T11:41:08.883Z,100217.52
2019-02-07T11:43:50.935Z,100199.62
2019-02-07T11:46:20.877Z,100209.30
2019-02-07T11:49:06.922Z,100211.27
2019-02-07T11:51:34.358Z,100216.36
2019-02-07T11:54:13.458Z,100217.91
2019-02-07T11:56:46.158Z,100211.25
2019-02-07T11:59:16.118Z,100203.84
2019-02-07T12:02:09.252Z,100213.29
2019-02-07T12:04:35.831Z,100206.47
2019-02-07T12:07:21.707Z,100206.16
2019-02-07T12:09:51.616Z,100209.27
2019-02-07T12:12:37.723Z,100202.45
2019-02-07T12:15:10.826Z,100222.47
2019-02-07T12:17:44.375Z,100212.48
2019-02-07T12:20:20.671Z,100205.81
2019-02-07T12:23:07.238Z,100208.10
2019-02-07T12:25:46.775Z,100201.69
2019-02-07T12:28:20.570Z,100196.84
2019-02-07T12:30:51.587Z,100188.80
2019-02-07T12:33:37.934Z,100199.83
2019-02-07T12:36:08.189Z,100191.59
2019-02-07T12:38:40.753Z,100187.45
2019-02-07T12:41:10.678Z,100195.94
2019-02-07T12:43:58.466Z,100193.39
2019-02-07T12:46:28.559Z,100193.97
2019-02-07T12:49:01.129Z,100200.85
2019-02-07T12:51:47.645Z,100179.87
2019-02-07T12:54:23.776Z,100198.20
2019-02-07T12:57:05.102Z,100192.94
2019-02-07T12:59:38.030Z,100178.31
2019-02-07T13:02:13.701Z,100193.30
2019-02-07T13:04:49.816Z,100192.98
2019-02-07T13:07:36.312Z,100191.88
2019-02-07T13:10:09.777Z,100185.00
2019-02-07T13:12:51.630Z,100184.22
2019-02-07T13:15:21.820Z,100173.93
2019-02-07T13:17:52.275Z,100183.80
2019-02-07T13:20:38.895Z,100176.64
2019-02-07T13:23:17.860Z,100183.72
2019-02-07T13:25:57.144Z,100175.36
2019-02-07T13:28:40.278Z,100160.73
2019-02-07T13:31:10.275Z,100171.30
2019-02-07T13:33:59.080Z,100171.23
2019-02-07T13:36:34.898Z,100164.55
2019-02-07T13:39:19.906Z,100160.17
2019-02-07T13:41:49.948Z,100158.75
2019-02-07T13:44:28.899Z,100157.65
2019-02-07T13:47:13.706Z,100162.77
2019-02-07T13:49:51.692Z,100164.91
2019-02-07T13:52:31.546Z,100155.94
2019-02-07T13:55:17.477Z,100150.28
2019-02-07T13:57:50.356Z,100148.68
2019-02-07T14:00:36.989Z,100143.05
2019-02-07T14:03:15.774Z,100147.50
2019-02-07T14:05:54.556Z,100142.66
2019-02-07T14:08:37.856Z,100138.75
2019-02-07T14:10:58.825Z,100145.22
2019-02-07T14:13:37.793Z,100146.40
2019-02-07T14:16:10.270Z,100148.92
2019-02-07T14:18:56.749Z,100150.21
2019-02-07T14:21:26.710Z,100147.26
2019-02-07T14:23:59.450Z,100140.89
2019-02-07T14:26:32.255Z,100140.17
2019-02-07T14:29:05.483Z,100160.99
2019-02-07T14:31:35.403Z,100142.37
2019-02-07T14:34:17.321Z,100133.62
2019-02-07T14:36:47.216Z,100159.06
2019-02-07T14:39:32.520Z,100155.08
2019-02-07T14:42:08.128Z,100155.72
2019-02-07T14:44:46.962Z,100152.30
2019-02-07T14:47:15.276Z,100160.69
2019-02-07T14:49:43.528Z,100166.49
2019-02-07T14:52:12.027Z,100175.55
2019-02-07T14:54:40.302Z,100165.77
2019-02-07T14:57:08.584Z,100161.83
2019-02-07T14:59:36.913Z,100152.58
2019-02-07T15:02:05.197Z,100156.20
2019-02-07T15:04:33.947Z,100168.75
2019-02-07T15:07:02.245Z,100162.69
2019-02-07T15:09:30.506Z,100169.06
2019-02-07T15:11:58.826Z,100166.61
2019-02-07T15:14:27.089Z,100160.80
2019-02-07T15:16:55.409Z,100161.59
2019-02-07T15:19:23.824Z,100171.18
2019-02-07T15:21:52.249Z,100175.48
2019-02-07T15:24:21.502Z,100180.32
2019-02-07T15:26:49.791Z,100174.98
2019-02-07T15:29:18.100Z,100181.20
2019-02-07T15:31:46.636Z,100187.84
2019-02-07T15:34:14.889Z,100187.59
2019-02-07T15:36:43.342Z,100192.93
2019-02-07T15:39:23.987Z,100202.01
2019-02-07T15:41:58.624Z,100194.03
2019-02-07T15:44:26.987Z,100196.33
2019-02-07T15:46:55.475Z,100206.95
2019-02-07T15:49:23.878Z,100202.95
2019-02-07T15:51:52.155Z,100201.92
2019-02-07T15:54:21.769Z,100202.23
2019-02-07T15:56:50.161Z,100206.59
2019-02-07T15:59:20.163Z,100208.02
2019-02-07T16:01:53.290Z,100206.41
2019-02-07T16:04:23.656Z,100197.27
2019-02-07T16:06:52.067Z,100205.06
2019-02-07T16:09:20.391Z,100209.17
2019-02-07T16:11:51.745Z,100220.35
2019-02-07T16:14:19.143Z,100221.57
2019-02-07T16:16:47.460Z,100219.13
2019-02-07T16:19:16.199Z,100227.98
2019-02-07T16:21:46.573Z,100233.78
2019-02-07T16:24:15.988Z,100224.95
2019-02-07T16:26:44.599Z,100221.94
2019-02-07T16:29:13.111Z,100244.95
2019-02-07T16:31:41.479Z,100235.34
2019-02-07T16:34:09.863Z,100248.20
2019-02-07T16:36:38.168Z,100245.75
2019-02-07T16:39:08.150Z,100248.70
2019-02-07T16:41:36.467Z,100267.78
2019-02-07T16:44:04.837Z,100244.52
2019-02-07T16:46:33.349Z,100255.09
2019-02-07T16:49:01.612Z,100270.11
2019-02-07T16:51:30.042Z,100270.67
2019-02-07T16:53:58.509Z,100249.92
2019-02-07T16:56:27.430Z,100252.81
2019-02-07T16:58:57.457Z,100256.30
2019-02-07T17:01:25.698Z,100268.81
2019-02-07T17:04:00.278Z,100258.84
2019-02-07T17:09:21.571Z,100252.92
2019-02-07T17:11:49.833Z,100272.28
2019-02-07T17:14:18.222Z,100275.88
2019-02-07T17:16:46.713Z,100274.69
2019-02-07T17:19:14.949Z,100266.91
2019-02-07T17:21:43.335Z,100274.41
2019-02-07T17:24:11.637Z,100288.19
2019-02-07T17:26:40.233Z,100287.50
2019-02-07T17:29:08.510Z,100294.83
2019-02-07T17:31:36.894Z,100299.75
2019-02-07T17:34:05.182Z,100286.05
2019-02-07T17:36:33.490Z,100273.70
2019-02-07T17:39:02.249Z,100291.03
2019-02-07T17:41:30.553Z,100282.42
2019-02-07T17:43:58.877Z,100292.07
2019-02-07T17:46:27.139Z,100290.16
2019-02-07T17:48:55.678Z,100300.12
2019-02-07T17:51:23.977Z,100324.52
2019-02-07T17:53:52.807Z,100357.16
2019-02-07T17:56:21.850Z,100393.80
2019-02-07T17:58:50.239Z,100376.55
2019-02-07T18:01:18.621Z,100382.28
2019-02-07T18:03:46.922Z,100371.49
2019-02-07T18:06:15.384Z,100382.92
2019-02-07T18:08:43.643Z,100386.20
2019-02-07T18:11:12.370Z,100388.17
2019-02-07T18:13:40.678Z,100382.98
2019-02-07T18:16:08.974Z,100391.58
2019-02-07T18:18:37.243Z,100389.16
2019-02-07T18:21:05.549Z,100395.42
2019-02-07T18:23:33.825Z,100405.63
2019-02-07T18:26:02.194Z,100412.09
2019-02-07T18:28:30.465Z,100411.92
2019-02-07T18:30:58.713Z,100400.05
2019-02-07T18:33:27.110Z,100404.90
2019-02-07T18:35:55.973Z,100405.95
2019-02-07T18:38:24.553Z,100408.41
2019-02-07T18:40:52.822Z,100408.67
2019-02-07T18:43:21.229Z,100409.26
2019-02-07T18:45:49.525Z,100402.27
2019-02-07T18:48:17.833Z,100417.88
2019-02-07T18:50:46.236Z,100424.35
2019-02-07T18:53:14.651Z,100430.02
2019-02-07T18:55:43.333Z,100423.83
2019-02-07T18:58:11.595Z,100428.44
2019-02-07T19:00:39.872Z,100429.99
2019-02-07T19:03:08.830Z,100435.31
2019-02-07T19:05:37.152Z,100432.95
2019-02-07T19:08:06.235Z,100432.66
2019-02-07T19:10:34.552Z,100435.64
2019-02-07T19:13:02.846Z,100434.00
2019-02-07T19:15:37.194Z,100436.17
2019-02-07T19:18:05.603Z,100435.05
2019-02-07T19:20:33.919Z,100441.58
2019-02-07T19:23:02.398Z,100433.82
2019-02-07T19:25:30.646Z,100438.36
2019-02-07T19:27:59.317Z,100449.38
2019-02-07T19:30:30.109Z,100447.48
2019-02-07T19:32:58.434Z,100438.62
2019-02-07T19:35:26.715Z,100447.48
2019-02-07T19:37:54.973Z,100453.39
2019-02-07T19:40:23.258Z,100454.20
2019-02-07T19:42:51.694Z,100455.55
2019-02-07T19:45:22.690Z,100467.14
2019-02-07T19:47:50.968Z,100471.70
2019-02-07T19:50:21.381Z,100472.25
2019-02-07T19:52:50.060Z,100481.44
2019-02-07T19:55:20.450Z,100485.71
2019-02-07T19:57:48.767Z,100495.42
2019-02-07T20:00:19.948Z,100497.84
2019-02-07T20:02:48.204Z,100488.21
2019-02-07T20:05:16.539Z,100493.05
2019-02-07T20:07:44.954Z,100491.45
2019-02-07T20:10:16.264Z,100490.35
2019-02-07T20:12:44.663Z,100496.55
2019-02-07T20:15:24.639Z,100487.71
2019-02-07T20:17:52.954Z,100491.48
2019-02-07T20:20:21.224Z,100488.79
2019-02-07T20:22:49.556Z,100492.03
2019-02-07T20:25:19.579Z,100493.12
2019-02-07T20:27:47.927Z,100490.71
2019-02-07T20:30:19.512Z,100502.55
2019-02-07T20:32:47.871Z,100498.55
2019-02-07T20:35:16.346Z,100498.25
2019-02-07T20:37:44.652Z,100505.27
2019-02-07T20:40:19.152Z,100515.28
2019-02-07T20:42:47.598Z,100520.66
2019-02-07T20:45:15.974Z,100522.00
2019-02-07T20:47:44.402Z,100522.30
2019-02-07T20:50:18.675Z,100520.93
2019-02-07T20:52:47.071Z,100520.69
2019-02-07T20:55:15.375Z,100527.39
2019-02-07T20:57:43.950Z,100529.00
2019-02-07T21:00:24.064Z,100537.84
2019-02-07T21:02:52.322Z,100526.00
2019-02-07T21:05:20.579Z,100529.48
2019-02-07T21:07:48.951Z,100536.71
2019-02-07T21:10:19.772Z,100532.05
2019-02-07T21:12:48.166Z,100532.55
2019-02-07T21:15:18.965Z,100534.94
2019-02-07T21:17:48.059Z,100547.59
2019-02-07T21:20:27.762Z,100549.20
2019-02-07T21:22:56.735Z,100557.26
2019-02-07T21:25:27.647Z,100556.41
2019-02-07T21:27:56.012Z,100557.26
2019-02-07T21:30:27.104Z,100561.53
2019-02-07T21:32:55.470Z,100563.70
2019-02-07T21:35:23.752Z,100567.73
2019-02-07T21:37:52.198Z,100566.66
2019-02-07T21:40:22.995Z,100571.17
2019-02-07T21:42:53.215Z,100573.02
2019-02-07T21:45:21.589Z,100571.91
2019-02-07T21:47:50.278Z,100581.05
2019-02-07T21:50:20.700Z,100586.96
2019-02-07T21:52:49.619Z,100589.66
2019-02-07T21:55:19.848Z,100585.86
2019-02-07T21:57:48.111Z,100593.64
2019-02-07T22:00:34.067Z,100606.26
2019-02-07T22:03:02.359Z,100601.70
2019-02-07T22:05:30.661Z,100607.13
2019-02-07T22:07:58.928Z,100602.84
2019-02-07T22:10:27.298Z,100610.39
2019-02-07T22:12:55.612Z,100614.69
2019-02-07T22:15:25.571Z,100622.24
2019-02-07T22:17:53.935Z,100628.95
2019-02-07T22:20:24.707Z,100633.84
2019-02-07T22:22:53.025Z,100632.47
2019-02-07T22:25:21.467Z,100630.60
2019-02-07T22:27:49.842Z,100633.30
2019-02-07T22:30:30.176Z,100634.93
2019-02-07T22:32:58.659Z,100635.20
2019-02-07T22:35:27.033Z,100635.49
2019-02-07T22:37:55.310Z,100638.73
2019-02-07T22:40:24.728Z,100639.03
2019-02-07T22:42:53.061Z,100640.86
2019-02-07T22:45:23.216Z,100640.87
2019-02-07T22:47:51.617Z,100646.53
2019-02-07T22:50:25.308Z,100646.83
2019-02-07T22:52:57.065Z,100643.87
2019-02-07T22:55:24.059Z,100648.95
2019-02-07T22:57:53.342Z,100654.09
2019-02-07T23:00:38.913Z,100649.77
2019-02-07T23:03:15.590Z,100654.64
2019-02-07T23:05:43.836Z,100664.88
2019-02-07T23:08:12.332Z,100664.04
2019-02-07T23:10:41.427Z,100665.92
2019-02-07T23:13:09.847Z,100671.84
2019-02-07T23:15:38.111Z,100672.67
2019-02-07T23:18:08.038Z,100675.62
2019-02-07T23:20:36.388Z,100678.83
2019-02-07T23:23:07.543Z,100680.19
2019-02-07T23:25:35.808Z,100686.39
2019-02-07T23:28:04.206Z,100685.84
2019-02-07T23:30:32.506Z,100677.50
2019-02-07T23:33:00.767Z,100681.82
2019-02-07T23:35:31.739Z,100677.77
2019-02-07T23:38:00.096Z,100690.43
2019-02-07T23:40:28.394Z,100684.78
2019-02-07T23:42:57.086Z,100681.82
2019-02-07T23:45:25.438Z,100692.33
2019-02-07T23:47:53.717Z,100682.95
2019-02-07T23:50:22.006Z,100685.42
2019-02-07T23:52:50.255Z,100694.85
2019-02-07T23:55:18.646Z,100699.43
2019-02-07T23:57:46.998Z,100694.34
